sensor_id;sensor_type;location;lat;lon;timestamp;P1;durP1;ratioP1;P2;durP2;ratioP2
65189;SDS011;51777;53.570;9.984;2023-11-22T00:00:25;5.20;;;2.85;;
65189;SDS011;51777;53.570;9.984;2023-11-22T00:02:51;3.55;;;2.75;;
65189;SDS011;51777;53.570;9.984;2023-11-22T00:05:16;5.28;;;3.13;;
65189;SDS011;51777;53.570;9.984;2023-11-22T00:07:42;4.80;;;3.10;;
65189;SDS011;51777;53.570;9.984;2023-11-22T00:10:07;4.25;;;2.72;;
65189;SDS011;51777;53.570;9.984;2023-11-22T00:12:34;3.10;;;2.80;;
65189;SDS011;51777;53.570;9.984;2023-11-22T00:15:06;4.07;;;3.03;;
65189;SDS011;51777;53.570;9.984;2023-11-22T00:17:34;5.30;;;2.90;;
65189;SDS011;51777;53.570;9.984;2023-11-22T00:20:00;5.63;;;2.85;;
65189;SDS011;51777;53.570;9.984;2023-11-22T00:22:30;5.97;;;3.30;;
65189;SDS011;51777;53.570;9.984;2023-11-22T00:24:57;5.13;;;3.17;;
65189;SDS011;51777;53.570;9.984;2023-11-22T00:27:23;3.60;;;2.83;;
65189;SDS011;51777;53.570;9.984;2023-11-22T00:29:50;6.97;;;3.17;;
65189;SDS011;51777;53.570;9.984;2023-11-22T00:32:17;4.53;;;3.33;;
65189;SDS011;51777;53.570;9.984;2023-11-22T00:34:42;5.30;;;2.97;;
65189;SDS011;51777;53.570;9.984;2023-11-22T00:37:08;6.70;;;3.30;;
65189;SDS011;51777;53.570;9.984;2023-11-22T00:39:33;4.25;;;3.40;;
65189;SDS011;51777;53.570;9.984;2023-11-22T00:41:58;7.50;;;3.38;;
65189;SDS011;51777;53.570;9.984;2023-11-22T00:44:24;4.75;;;3.38;;
65189;SDS011;51777;53.570;9.984;2023-11-22T00:46:49;5.07;;;3.67;;
65189;SDS011;51777;53.570;9.984;2023-11-22T00:49:15;5.53;;;3.40;;
65189;SDS011;51777;53.570;9.984;2023-11-22T00:51:40;5.25;;;3.25;;
65189;SDS011;51777;53.570;9.984;2023-11-22T00:54:05;4.70;;;3.33;;
65189;SDS011;51777;53.570;9.984;2023-11-22T00:56:31;7.20;;;3.30;;
65189;SDS011;51777;53.570;9.984;2023-11-22T00:58:57;4.45;;;3.15;;
65189;SDS011;51777;53.570;9.984;2023-11-22T01:01:24;4.20;;;2.97;;
65189;SDS011;51777;53.570;9.984;2023-11-22T01:03:51;4.63;;;3.10;;
65189;SDS011;51777;53.570;9.984;2023-11-22T01:06:16;5.40;;;3.35;;
65189;SDS011;51777;53.570;9.984;2023-11-22T01:08:43;4.15;;;3.00;;
65189;SDS011;51777;53.570;9.984;2023-11-22T01:11:08;4.75;;;3.30;;
65189;SDS011;51777;53.570;9.984;2023-11-22T01:13:34;8.50;;;3.55;;
65189;SDS011;51777;53.570;9.984;2023-11-22T01:16:06;4.03;;;3.03;;
65189;SDS011;51777;53.570;9.984;2023-11-22T01:18:35;5.55;;;3.38;;
65189;SDS011;51777;53.570;9.984;2023-11-22T01:21:01;5.57;;;3.47;;
65189;SDS011;51777;53.570;9.984;2023-11-22T01:23:26;5.10;;;3.58;;
65189;SDS011;51777;53.570;9.984;2023-11-22T01:25:53;5.28;;;3.55;;
65189;SDS011;51777;53.570;9.984;2023-11-22T01:28:19;6.13;;;3.45;;
65189;SDS011;51777;53.570;9.984;2023-11-22T01:30:44;5.70;;;3.17;;
65189;SDS011;51777;53.570;9.984;2023-11-22T01:33:14;5.63;;;3.47;;
65189;SDS011;51777;53.570;9.984;2023-11-22T01:35:40;5.85;;;3.65;;
65189;SDS011;51777;53.570;9.984;2023-11-22T01:38:06;5.95;;;3.40;;
65189;SDS011;51777;53.570;9.984;2023-11-22T01:40:33;6.32;;;3.20;;
65189;SDS011;51777;53.570;9.984;2023-11-22T01:42:59;6.47;;;3.33;;
65189;SDS011;51777;53.570;9.984;2023-11-22T01:45:27;8.68;;;3.53;;
65189;SDS011;51777;53.570;9.984;2023-11-22T01:47:53;4.30;;;3.25;;
65189;SDS011;51777;53.570;9.984;2023-11-22T01:50:19;4.88;;;3.55;;
65189;SDS011;51777;53.570;9.984;2023-11-22T01:52:45;4.32;;;3.47;;
65189;SDS011;51777;53.570;9.984;2023-11-22T01:55:11;4.47;;;3.50;;
65189;SDS011;51777;53.570;9.984;2023-11-22T01:57:38;4.10;;;3.17;;
65189;SDS011;51777;53.570;9.984;2023-11-22T02:00:04;4.05;;;3.38;;
65189;SDS011;51777;53.570;9.984;2023-11-22T02:02:33;5.40;;;3.50;;
65189;SDS011;51777;53.570;9.984;2023-11-22T02:04:59;6.15;;;3.58;;
65189;SDS011;51777;53.570;9.984;2023-11-22T02:07:26;6.30;;;3.30;;
65189;SDS011;51777;53.570;9.984;2023-11-22T02:09:52;6.90;;;3.67;;
65189;SDS011;51777;53.570;9.984;2023-11-22T02:12:18;7.38;;;3.80;;
65189;SDS011;51777;53.570;9.984;2023-11-22T02:14:44;4.88;;;3.42;;
65189;SDS011;51777;53.570;9.984;2023-11-22T02:17:10;5.45;;;3.75;;
65189;SDS011;51777;53.570;9.984;2023-11-22T02:19:36;5.90;;;3.90;;
65189;SDS011;51777;53.570;9.984;2023-11-22T02:22:02;4.47;;;3.47;;
65189;SDS011;51777;53.570;9.984;2023-11-22T02:24:27;4.63;;;3.65;;
65189;SDS011;51777;53.570;9.984;2023-11-22T02:26:53;5.93;;;3.70;;
65189;SDS011;51777;53.570;9.984;2023-11-22T02:29:18;8.15;;;3.65;;
65189;SDS011;51777;53.570;9.984;2023-11-22T02:31:45;5.75;;;3.47;;
65189;SDS011;51777;53.570;9.984;2023-11-22T02:34:10;5.05;;;3.40;;
65189;SDS011;51777;53.570;9.984;2023-11-22T02:36:36;4.93;;;3.45;;
65189;SDS011;51777;53.570;9.984;2023-11-22T02:39:02;4.28;;;3.25;;
65189;SDS011;51777;53.570;9.984;2023-11-22T02:41:27;5.32;;;3.47;;
65189;SDS011;51777;53.570;9.984;2023-11-22T02:43:55;4.10;;;3.20;;
65189;SDS011;51777;53.570;9.984;2023-11-22T02:46:20;3.72;;;3.20;;
65189;SDS011;51777;53.570;9.984;2023-11-22T02:48:46;4.43;;;3.10;;
65189;SDS011;51777;53.570;9.984;2023-11-22T02:51:11;4.65;;;3.00;;
65189;SDS011;51777;53.570;9.984;2023-11-22T02:53:38;3.90;;;3.03;;
65189;SDS011;51777;53.570;9.984;2023-11-22T02:56:07;4.72;;;3.40;;
65189;SDS011;51777;53.570;9.984;2023-11-22T02:58:32;4.55;;;3.33;;
65189;SDS011;51777;53.570;9.984;2023-11-22T03:00:57;5.50;;;3.53;;
65189;SDS011;51777;53.570;9.984;2023-11-22T03:03:23;4.47;;;3.40;;
65189;SDS011;51777;53.570;9.984;2023-11-22T03:05:51;4.63;;;3.45;;
65189;SDS011;51777;53.570;9.984;2023-11-22T03:08:17;4.85;;;3.17;;
65189;SDS011;51777;53.570;9.984;2023-11-22T03:10:42;5.13;;;3.50;;
65189;SDS011;51777;53.570;9.984;2023-11-22T03:13:08;4.53;;;3.15;;
65189;SDS011;51777;53.570;9.984;2023-11-22T03:15:36;4.78;;;3.08;;
65189;SDS011;51777;53.570;9.984;2023-11-22T03:18:01;4.45;;;3.40;;
65189;SDS011;51777;53.570;9.984;2023-11-22T03:20:28;4.40;;;3.15;;
65189;SDS011;51777;53.570;9.984;2023-11-22T03:22:53;5.57;;;3.20;;
65189;SDS011;51777;53.570;9.984;2023-11-22T03:25:20;3.72;;;3.30;;
65189;SDS011;51777;53.570;9.984;2023-11-22T03:27:45;5.50;;;3.53;;
65189;SDS011;51777;53.570;9.984;2023-11-22T03:30:12;4.78;;;3.53;;
65189;SDS011;51777;53.570;9.984;2023-11-22T03:32:40;4.78;;;3.00;;
65189;SDS011;51777;53.570;9.984;2023-11-22T03:35:06;4.72;;;3.25;;
65189;SDS011;51777;53.570;9.984;2023-11-22T03:37:33;6.18;;;3.30;;
65189;SDS011;51777;53.570;9.984;2023-11-22T03:39:59;6.20;;;3.45;;
65189;SDS011;51777;53.570;9.984;2023-11-22T03:42:24;5.95;;;3.40;;
65189;SDS011;51777;53.570;9.984;2023-11-22T03:44:50;4.90;;;3.10;;
65189;SDS011;51777;53.570;9.984;2023-11-22T03:47:15;7.20;;;3.10;;
65189;SDS011;51777;53.570;9.984;2023-11-22T03:49:41;4.45;;;3.28;;
65189;SDS011;51777;53.570;9.984;2023-11-22T03:52:07;5.22;;;3.95;;
65189;SDS011;51777;53.570;9.984;2023-11-22T03:54:33;9.82;;;3.60;;
65189;SDS011;51777;53.570;9.984;2023-11-22T03:57:00;5.65;;;3.40;;
65189;SDS011;51777;53.570;9.984;2023-11-22T03:59:25;4.95;;;3.38;;
65189;SDS011;51777;53.570;9.984;2023-11-22T04:01:50;4.82;;;3.40;;
65189;SDS011;51777;53.570;9.984;2023-11-22T04:04:16;4.45;;;3.35;;
65189;SDS011;51777;53.570;9.984;2023-11-22T04:06:41;4.88;;;3.38;;
65189;SDS011;51777;53.570;9.984;2023-11-22T04:09:07;4.88;;;3.35;;
65189;SDS011;51777;53.570;9.984;2023-11-22T04:11:35;5.00;;;3.58;;
65189;SDS011;51777;53.570;9.984;2023-11-22T04:14:00;4.85;;;3.50;;
65189;SDS011;51777;53.570;9.984;2023-11-22T04:16:26;4.50;;;3.35;;
65189;SDS011;51777;53.570;9.984;2023-11-22T04:18:51;18.15;;;3.35;;
65189;SDS011;51777;53.570;9.984;2023-11-22T04:21:17;4.57;;;3.35;;
65189;SDS011;51777;53.570;9.984;2023-11-22T04:23:42;5.70;;;3.22;;
65189;SDS011;51777;53.570;9.984;2023-11-22T04:26:07;8.05;;;3.60;;
65189;SDS011;51777;53.570;9.984;2023-11-22T04:28:33;5.65;;;3.45;;
65189;SDS011;51777;53.570;9.984;2023-11-22T04:30:59;4.55;;;3.30;;
65189;SDS011;51777;53.570;9.984;2023-11-22T04:33:25;3.78;;;3.33;;
65189;SDS011;51777;53.570;9.984;2023-11-22T04:35:53;5.72;;;3.63;;
65189;SDS011;51777;53.570;9.984;2023-11-22T04:38:19;4.85;;;3.58;;
65189;SDS011;51777;53.570;9.984;2023-11-22T04:40:44;9.05;;;4.00;;
65189;SDS011;51777;53.570;9.984;2023-11-22T04:43:10;5.63;;;3.80;;
65189;SDS011;51777;53.570;9.984;2023-11-22T04:45:35;5.90;;;3.30;;
65189;SDS011;51777;53.570;9.984;2023-11-22T04:48:01;7.63;;;3.58;;
65189;SDS011;51777;53.570;9.984;2023-11-22T04:50:27;7.93;;;3.38;;
65189;SDS011;51777;53.570;9.984;2023-11-22T04:52:52;5.07;;;3.63;;
65189;SDS011;51777;53.570;9.984;2023-11-22T04:55:18;4.18;;;3.10;;
65189;SDS011;51777;53.570;9.984;2023-11-22T04:57:44;5.60;;;3.50;;
65189;SDS011;51777;53.570;9.984;2023-11-22T05:00:10;7.55;;;3.60;;
65189;SDS011;51777;53.570;9.984;2023-11-22T05:02:36;4.93;;;3.80;;
65189;SDS011;51777;53.570;9.984;2023-11-22T05:05:02;5.68;;;3.50;;
65189;SDS011;51777;53.570;9.984;2023-11-22T05:07:28;6.05;;;3.35;;
65189;SDS011;51777;53.570;9.984;2023-11-22T05:09:55;4.97;;;3.70;;
65189;SDS011;51777;53.570;9.984;2023-11-22T05:12:20;5.03;;;3.55;;
65189;SDS011;51777;53.570;9.984;2023-11-22T05:14:46;4.90;;;3.67;;
65189;SDS011;51777;53.570;9.984;2023-11-22T05:17:11;5.20;;;3.78;;
65189;SDS011;51777;53.570;9.984;2023-11-22T05:19:37;5.78;;;3.50;;
65189;SDS011;51777;53.570;9.984;2023-11-22T05:22:03;6.38;;;3.72;;
65189;SDS011;51777;53.570;9.984;2023-11-22T05:24:28;4.53;;;3.78;;
65189;SDS011;51777;53.570;9.984;2023-11-22T05:26:54;5.10;;;3.72;;
65189;SDS011;51777;53.570;9.984;2023-11-22T05:29:19;5.57;;;3.60;;
65189;SDS011;51777;53.570;9.984;2023-11-22T05:31:45;9.70;;;3.63;;
65189;SDS011;51777;53.570;9.984;2023-11-22T05:34:10;5.78;;;3.90;;
65189;SDS011;51777;53.570;9.984;2023-11-22T05:36:35;7.22;;;4.03;;
65189;SDS011;51777;53.570;9.984;2023-11-22T05:39:01;5.65;;;3.42;;
65189;SDS011;51777;53.570;9.984;2023-11-22T05:41:28;5.47;;;3.65;;
65189;SDS011;51777;53.570;9.984;2023-11-22T05:43:54;5.65;;;3.90;;
65189;SDS011;51777;53.570;9.984;2023-11-22T05:46:20;6.90;;;3.90;;
65189;SDS011;51777;53.570;9.984;2023-11-22T05:48:52;7.18;;;3.95;;
65189;SDS011;51777;53.570;9.984;2023-11-22T05:51:18;5.57;;;4.00;;
65189;SDS011;51777;53.570;9.984;2023-11-22T05:53:43;8.63;;;3.95;;
65189;SDS011;51777;53.570;9.984;2023-11-22T05:56:09;20.65;;;4.13;;
65189;SDS011;51777;53.570;9.984;2023-11-22T05:58:35;8.75;;;4.18;;
65189;SDS011;51777;53.570;9.984;2023-11-22T06:01:03;5.93;;;4.13;;
65189;SDS011;51777;53.570;9.984;2023-11-22T06:03:29;8.15;;;4.47;;
65189;SDS011;51777;53.570;9.984;2023-11-22T06:05:55;6.18;;;4.38;;
65189;SDS011;51777;53.570;9.984;2023-11-22T06:08:22;5.72;;;4.45;;
65189;SDS011;51777;53.570;9.984;2023-11-22T06:10:47;6.82;;;4.47;;
65189;SDS011;51777;53.570;9.984;2023-11-22T06:13:13;10.20;;;4.13;;
65189;SDS011;51777;53.570;9.984;2023-11-22T06:15:39;6.55;;;4.10;;
65189;SDS011;51777;53.570;9.984;2023-11-22T06:18:04;7.95;;;5.28;;
65189;SDS011;51777;53.570;9.984;2023-11-22T06:20:30;8.82;;;4.03;;
65189;SDS011;51777;53.570;9.984;2023-11-22T06:22:57;4.70;;;3.83;;
65189;SDS011;51777;53.570;9.984;2023-11-22T06:25:23;5.88;;;4.07;;
65189;SDS011;51777;53.570;9.984;2023-11-22T06:27:48;8.02;;;4.57;;
65189;SDS011;51777;53.570;9.984;2023-11-22T06:30:14;5.47;;;3.70;;
65189;SDS011;51777;53.570;9.984;2023-11-22T06:32:39;6.38;;;4.07;;
65189;SDS011;51777;53.570;9.984;2023-11-22T06:35:06;4.95;;;4.05;;
65189;SDS011;51777;53.570;9.984;2023-11-22T06:37:33;5.85;;;4.18;;
65189;SDS011;51777;53.570;9.984;2023-11-22T06:42:46;8.35;;;4.03;;
65189;SDS011;51777;53.570;9.984;2023-11-22T06:45:12;9.63;;;4.38;;
65189;SDS011;51777;53.570;9.984;2023-11-22T06:47:40;8.65;;;4.30;;
65189;SDS011;51777;53.570;9.984;2023-11-22T06:50:09;6.07;;;4.38;;
65189;SDS011;51777;53.570;9.984;2023-11-22T06:52:42;5.75;;;3.97;;
65189;SDS011;51777;53.570;9.984;2023-11-22T06:55:08;8.75;;;3.95;;
65189;SDS011;51777;53.570;9.984;2023-11-22T06:57:35;6.43;;;3.85;;
65189;SDS011;51777;53.570;9.984;2023-11-22T07:00:01;7.80;;;4.35;;
65189;SDS011;51777;53.570;9.984;2023-11-22T07:02:32;6.28;;;3.78;;
65189;SDS011;51777;53.570;9.984;2023-11-22T07:04:57;6.25;;;4.03;;
65189;SDS011;51777;53.570;9.984;2023-11-22T07:07:25;6.68;;;4.00;;
65189;SDS011;51777;53.570;9.984;2023-11-22T07:09:51;6.55;;;4.03;;
65189;SDS011;51777;53.570;9.984;2023-11-22T07:12:16;9.05;;;4.22;;
65189;SDS011;51777;53.570;9.984;2023-11-22T07:14:41;7.65;;;4.00;;
65189;SDS011;51777;53.570;9.984;2023-11-22T07:17:10;7.38;;;4.32;;
65189;SDS011;51777;53.570;9.984;2023-11-22T07:19:35;8.25;;;4.00;;
65189;SDS011;51777;53.570;9.984;2023-11-22T07:22:05;9.73;;;4.80;;
65189;SDS011;51777;53.570;9.984;2023-11-22T07:24:40;5.85;;;3.85;;
65189;SDS011;51777;53.570;9.984;2023-11-22T07:27:12;14.40;;;3.90;;
65189;SDS011;51777;53.570;9.984;2023-11-22T07:29:41;13.68;;;4.55;;
65189;SDS011;51777;53.570;9.984;2023-11-22T07:32:07;13.18;;;5.10;;
65189;SDS011;51777;53.570;9.984;2023-11-22T07:34:33;12.80;;;4.95;;
65189;SDS011;51777;53.570;9.984;2023-11-22T07:37:00;11.27;;;4.43;;
65189;SDS011;51777;53.570;9.984;2023-11-22T07:39:26;8.98;;;4.40;;
65189;SDS011;51777;53.570;9.984;2023-11-22T07:41:52;10.43;;;4.40;;
65189;SDS011;51777;53.570;9.984;2023-11-22T07:44:19;17.30;;;4.45;;
65189;SDS011;51777;53.570;9.984;2023-11-22T07:46:46;8.15;;;4.15;;
65189;SDS011;51777;53.570;9.984;2023-11-22T07:49:11;9.23;;;4.68;;
65189;SDS011;51777;53.570;9.984;2023-11-22T07:51:38;23.05;;;4.88;;
65189;SDS011;51777;53.570;9.984;2023-11-22T07:54:07;19.17;;;5.13;;
65189;SDS011;51777;53.570;9.984;2023-11-22T07:56:34;10.65;;;4.93;;
65189;SDS011;51777;53.570;9.984;2023-11-22T07:59:02;17.73;;;4.85;;
65189;SDS011;51777;53.570;9.984;2023-11-22T08:01:28;16.25;;;4.82;;
65189;SDS011;51777;53.570;9.984;2023-11-22T08:04:14;9.77;;;4.80;;
65189;SDS011;51777;53.570;9.984;2023-11-22T08:06:41;15.70;;;4.95;;
65189;SDS011;51777;53.570;9.984;2023-11-22T08:09:07;14.15;;;5.15;;
65189;SDS011;51777;53.570;9.984;2023-11-22T08:11:36;13.55;;;5.20;;
65189;SDS011;51777;53.570;9.984;2023-11-22T08:14:02;9.32;;;5.13;;
65189;SDS011;51777;53.570;9.984;2023-11-22T08:16:29;8.48;;;5.57;;
65189;SDS011;51777;53.570;9.984;2023-11-22T08:18:54;16.55;;;5.90;;
65189;SDS011;51777;53.570;9.984;2023-11-22T08:21:22;11.00;;;5.35;;
65189;SDS011;51777;53.570;9.984;2023-11-22T08:23:48;13.00;;;5.07;;
65189;SDS011;51777;53.570;9.984;2023-11-22T08:26:14;12.20;;;5.22;;
65189;SDS011;51777;53.570;9.984;2023-11-22T08:28:44;9.20;;;5.05;;
65189;SDS011;51777;53.570;9.984;2023-11-22T08:31:13;11.07;;;5.18;;
65189;SDS011;51777;53.570;9.984;2023-11-22T08:33:41;9.13;;;4.65;;
65189;SDS011;51777;53.570;9.984;2023-11-22T08:36:07;11.50;;;4.68;;
65189;SDS011;51777;53.570;9.984;2023-11-22T08:38:34;12.75;;;4.72;;
65189;SDS011;51777;53.570;9.984;2023-11-22T08:41:06;8.77;;;4.60;;
65189;SDS011;51777;53.570;9.984;2023-11-22T08:43:32;10.18;;;4.30;;
65189;SDS011;51777;53.570;9.984;2023-11-22T08:45:58;19.80;;;4.43;;
65189;SDS011;51777;53.570;9.984;2023-11-22T08:48:25;16.88;;;4.57;;
65189;SDS011;51777;53.570;9.984;2023-11-22T08:50:51;7.15;;;3.60;;
65189;SDS011;51777;53.570;9.984;2023-11-22T08:53:19;12.68;;;3.90;;
65189;SDS011;51777;53.570;9.984;2023-11-22T08:55:45;10.05;;;3.90;;
65189;SDS011;51777;53.570;9.984;2023-11-22T08:58:12;5.95;;;3.78;;
65189;SDS011;51777;53.570;9.984;2023-11-22T09:00:41;12.38;;;4.35;;
65189;SDS011;51777;53.570;9.984;2023-11-22T09:03:07;12.52;;;4.28;;
65189;SDS011;51777;53.570;9.984;2023-11-22T09:05:36;8.52;;;4.30;;
65189;SDS011;51777;53.570;9.984;2023-11-22T09:08:01;12.00;;;4.90;;
65189;SDS011;51777;53.570;9.984;2023-11-22T09:10:27;11.40;;;4.43;;
65189;SDS011;51777;53.570;9.984;2023-11-22T09:12:52;16.67;;;4.60;;
65189;SDS011;51777;53.570;9.984;2023-11-22T09:15:18;10.50;;;4.60;;
65189;SDS011;51777;53.570;9.984;2023-11-22T09:17:51;12.73;;;4.28;;
65189;SDS011;51777;53.570;9.984;2023-11-22T09:20:19;6.97;;;4.00;;
65189;SDS011;51777;53.570;9.984;2023-11-22T09:22:52;10.25;;;4.38;;
65189;SDS011;51777;53.570;9.984;2023-11-22T09:25:23;12.75;;;4.45;;
65189;SDS011;51777;53.570;9.984;2023-11-22T09:27:50;8.80;;;4.40;;
65189;SDS011;51777;53.570;9.984;2023-11-22T09:30:25;8.30;;;4.30;;
65189;SDS011;51777;53.570;9.984;2023-11-22T09:33:14;9.02;;;3.95;;
65189;SDS011;51777;53.570;9.984;2023-11-22T09:35:41;9.93;;;4.13;;
65189;SDS011;51777;53.570;9.984;2023-11-22T09:38:11;8.77;;;4.18;;
65189;SDS011;51777;53.570;9.984;2023-11-22T09:40:48;7.47;;;4.07;;
65189;SDS011;51777;53.570;9.984;2023-11-22T09:43:14;13.40;;;3.92;;
65189;SDS011;51777;53.570;9.984;2023-11-22T09:45:42;8.25;;;4.30;;
65189;SDS011;51777;53.570;9.984;2023-11-22T09:48:14;7.60;;;3.17;;
65189;SDS011;51777;53.570;9.984;2023-11-22T09:50:53;7.70;;;3.58;;
65189;SDS011;51777;53.570;9.984;2023-11-22T09:53:31;9.45;;;3.22;;
65189;SDS011;51777;53.570;9.984;2023-11-22T09:56:01;6.97;;;3.40;;
65189;SDS011;51777;53.570;9.984;2023-11-22T09:58:32;10.95;;;3.60;;
65189;SDS011;51777;53.570;9.984;2023-11-22T10:01:03;11.07;;;3.47;;
65189;SDS011;51777;53.570;9.984;2023-11-22T10:03:29;9.27;;;3.70;;
65189;SDS011;51777;53.570;9.984;2023-11-22T10:05:57;5.45;;;3.10;;
65189;SDS011;51777;53.570;9.984;2023-11-22T10:08:29;8.93;;;3.60;;
65189;SDS011;51777;53.570;9.984;2023-11-22T10:10:56;7.80;;;3.47;;
65189;SDS011;51777;53.570;9.984;2023-11-22T10:13:22;8.73;;;3.83;;
65189;SDS011;51777;53.570;9.984;2023-11-22T10:15:48;10.90;;;3.60;;
65189;SDS011;51777;53.570;9.984;2023-11-22T10:18:14;9.20;;;3.60;;
65189;SDS011;51777;53.570;9.984;2023-11-22T10:20:40;11.73;;;3.70;;
65189;SDS011;51777;53.570;9.984;2023-11-22T10:23:10;12.57;;;4.10;;
65189;SDS011;51777;53.570;9.984;2023-11-22T10:25:45;10.00;;;3.75;;
65189;SDS011;51777;53.570;9.984;2023-11-22T10:28:20;8.32;;;4.57;;
65189;SDS011;51777;53.570;9.984;2023-11-22T10:30:49;8.25;;;4.35;;
65189;SDS011;51777;53.570;9.984;2023-11-22T10:33:16;11.00;;;4.20;;
65189;SDS011;51777;53.570;9.984;2023-11-22T10:35:46;10.48;;;4.18;;
65189;SDS011;51777;53.570;9.984;2023-11-22T10:38:13;6.30;;;3.40;;
65189;SDS011;51777;53.570;9.984;2023-11-22T10:40:39;8.15;;;3.63;;
65189;SDS011;51777;53.570;9.984;2023-11-22T10:43:06;11.80;;;3.88;;
65189;SDS011;51777;53.570;9.984;2023-11-22T10:45:33;7.70;;;3.60;;
65189;SDS011;51777;53.570;9.984;2023-11-22T10:48:00;13.45;;;5.10;;
65189;SDS011;51777;53.570;9.984;2023-11-22T10:50:26;15.48;;;4.28;;
65189;SDS011;51777;53.570;9.984;2023-11-22T10:52:53;17.55;;;4.25;;
65189;SDS011;51777;53.570;9.984;2023-11-22T10:55:25;10.00;;;4.20;;
65189;SDS011;51777;53.570;9.984;2023-11-22T10:57:54;9.10;;;3.20;;
65189;SDS011;51777;53.570;9.984;2023-11-22T11:00:21;10.77;;;3.47;;
65189;SDS011;51777;53.570;9.984;2023-11-22T11:02:51;7.82;;;3.72;;
65189;SDS011;51777;53.570;9.984;2023-11-22T11:05:30;5.32;;;3.08;;
65189;SDS011;51777;53.570;9.984;2023-11-22T11:08:07;13.55;;;3.40;;
65189;SDS011;51777;53.570;9.984;2023-11-22T11:10:41;12.48;;;3.60;;
65189;SDS011;51777;53.570;9.984;2023-11-22T11:13:08;12.77;;;4.10;;
65189;SDS011;51777;53.570;9.984;2023-11-22T11:15:38;9.90;;;4.43;;
65189;SDS011;51777;53.570;9.984;2023-11-22T11:18:12;19.95;;;6.32;;
65189;SDS011;51777;53.570;9.984;2023-11-22T11:23:16;5.82;;;3.22;;
65189;SDS011;51777;53.570;9.984;2023-11-22T11:25:44;8.52;;;3.72;;
65189;SDS011;51777;53.570;9.984;2023-11-22T11:28:13;12.13;;;4.55;;
65189;SDS011;51777;53.570;9.984;2023-11-22T11:30:46;4.45;;;2.63;;
65189;SDS011;51777;53.570;9.984;2023-11-22T11:33:14;5.90;;;3.17;;
65189;SDS011;51777;53.570;9.984;2023-11-22T11:36:03;15.52;;;3.20;;
65189;SDS011;51777;53.570;9.984;2023-11-22T11:38:37;9.00;;;3.30;;
65189;SDS011;51777;53.570;9.984;2023-11-22T11:41:09;6.18;;;3.35;;
65189;SDS011;51777;53.570;9.984;2023-11-22T11:43:45;11.85;;;4.20;;
65189;SDS011;51777;53.570;9.984;2023-11-22T11:46:13;9.52;;;3.35;;
65189;SDS011;51777;53.570;9.984;2023-11-22T11:48:43;8.00;;;2.95;;
65189;SDS011;51777;53.570;9.984;2023-11-22T11:51:09;10.25;;;3.60;;
65189;SDS011;51777;53.570;9.984;2023-11-22T11:53:38;9.82;;;3.22;;
65189;SDS011;51777;53.570;9.984;2023-11-22T11:56:04;14.57;;;3.15;;
65189;SDS011;51777;53.570;9.984;2023-11-22T11:58:30;11.43;;;3.90;;
65189;SDS011;51777;53.570;9.984;2023-11-22T12:00:57;15.15;;;4.05;;
65189;SDS011;51777;53.570;9.984;2023-11-22T12:03:23;6.40;;;3.20;;
65189;SDS011;51777;53.570;9.984;2023-11-22T12:05:48;7.55;;;2.38;;
65189;SDS011;51777;53.570;9.984;2023-11-22T12:08:17;5.53;;;2.58;;
65189;SDS011;51777;53.570;9.984;2023-11-22T12:10:43;3.13;;;2.40;;
65189;SDS011;51777;53.570;9.984;2023-11-22T12:13:16;3.38;;;2.17;;
65189;SDS011;51777;53.570;9.984;2023-11-22T12:15:42;3.72;;;1.88;;
65189;SDS011;51777;53.570;9.984;2023-11-22T12:18:09;8.05;;;2.38;;
65189;SDS011;51777;53.570;9.984;2023-11-22T12:20:34;3.10;;;1.90;;
65189;SDS011;51777;53.570;9.984;2023-11-22T12:23:00;4.55;;;2.00;;
65189;SDS011;51777;53.570;9.984;2023-11-22T12:25:27;2.88;;;1.60;;
65189;SDS011;51777;53.570;9.984;2023-11-22T12:27:57;4.90;;;2.45;;
65189;SDS011;51777;53.570;9.984;2023-11-22T12:30:29;7.63;;;2.17;;
65189;SDS011;51777;53.570;9.984;2023-11-22T12:33:08;3.28;;;1.83;;
65189;SDS011;51777;53.570;9.984;2023-11-22T12:35:35;1.88;;;1.50;;
65189;SDS011;51777;53.570;9.984;2023-11-22T12:38:01;3.33;;;1.90;;
65189;SDS011;51777;53.570;9.984;2023-11-22T12:40:30;1.85;;;1.60;;
65189;SDS011;51777;53.570;9.984;2023-11-22T12:42:56;1.30;;;1.20;;
65189;SDS011;51777;53.570;9.984;2023-11-22T12:45:22;3.70;;;1.40;;
65189;SDS011;51777;53.570;9.984;2023-11-22T12:47:52;2.22;;;1.90;;
65189;SDS011;51777;53.570;9.984;2023-11-22T12:50:35;1.63;;;1.52;;
65189;SDS011;51777;53.570;9.984;2023-11-22T12:53:11;3.13;;;1.67;;
65189;SDS011;51777;53.570;9.984;2023-11-22T12:55:38;2.10;;;1.38;;
65189;SDS011;51777;53.570;9.984;2023-11-22T12:58:10;1.95;;;1.55;;
65189;SDS011;51777;53.570;9.984;2023-11-22T13:00:37;2.45;;;1.55;;
65189;SDS011;51777;53.570;9.984;2023-11-22T13:03:05;1.70;;;1.45;;
65189;SDS011;51777;53.570;9.984;2023-11-22T13:05:35;1.20;;;1.10;;
65189;SDS011;51777;53.570;9.984;2023-11-22T13:08:05;3.90;;;1.40;;
65189;SDS011;51777;53.570;9.984;2023-11-22T13:10:33;2.92;;;1.70;;
65189;SDS011;51777;53.570;9.984;2023-11-22T13:12:58;4.22;;;1.80;;
65189;SDS011;51777;53.570;9.984;2023-11-22T13:15:25;5.70;;;1.58;;
65189;SDS011;51777;53.570;9.984;2023-11-22T13:18:00;4.28;;;1.65;;
65189;SDS011;51777;53.570;9.984;2023-11-22T13:20:31;1.77;;;1.60;;
65189;SDS011;51777;53.570;9.984;2023-11-22T13:22:57;6.32;;;1.60;;
65189;SDS011;51777;53.570;9.984;2023-11-22T13:25:24;1.17;;;1.00;;
65189;SDS011;51777;53.570;9.984;2023-11-22T13:27:53;1.30;;;1.20;;
65189;SDS011;51777;53.570;9.984;2023-11-22T13:30:19;1.85;;;1.30;;
65189;SDS011;51777;53.570;9.984;2023-11-22T13:32:48;2.03;;;1.10;;
65189;SDS011;51777;53.570;9.984;2023-11-22T13:35:23;1.50;;;1.25;;
65189;SDS011;51777;53.570;9.984;2023-11-22T13:37:49;4.82;;;1.40;;
65189;SDS011;51777;53.570;9.984;2023-11-22T13:40:15;1.90;;;1.35;;
65189;SDS011;51777;53.570;9.984;2023-11-22T13:42:46;1.13;;;1.00;;
65189;SDS011;51777;53.570;9.984;2023-11-22T13:45:13;5.00;;;1.73;;
65189;SDS011;51777;53.570;9.984;2023-11-22T13:48:19;1.08;;;1.00;;
65189;SDS011;51777;53.570;9.984;2023-11-22T13:50:49;3.97;;;1.67;;
65189;SDS011;51777;53.570;9.984;2023-11-22T13:53:14;2.05;;;1.75;;
65189;SDS011;51777;53.570;9.984;2023-11-22T13:56:20;1.70;;;1.42;;
65189;SDS011;51777;53.570;9.984;2023-11-22T13:58:52;2.35;;;1.60;;
65189;SDS011;51777;53.570;9.984;2023-11-22T14:01:17;2.55;;;1.40;;
65189;SDS011;51777;53.570;9.984;2023-11-22T14:03:46;2.72;;;1.27;;
65189;SDS011;51777;53.570;9.984;2023-11-22T14:06:13;5.07;;;2.33;;
65189;SDS011;51777;53.570;9.984;2023-11-22T14:08:42;10.70;;;5.38;;
65189;SDS011;51777;53.570;9.984;2023-11-22T14:11:08;6.15;;;3.70;;
65189;SDS011;51777;53.570;9.984;2023-11-22T14:13:35;3.35;;;2.20;;
65189;SDS011;51777;53.570;9.984;2023-11-22T14:16:02;3.63;;;2.45;;
65189;SDS011;51777;53.570;9.984;2023-11-22T14:18:30;2.65;;;2.03;;
65189;SDS011;51777;53.570;9.984;2023-11-22T14:20:56;3.35;;;1.70;;
65189;SDS011;51777;53.570;9.984;2023-11-22T14:23:23;3.15;;;2.00;;
65189;SDS011;51777;53.570;9.984;2023-11-22T14:25:48;4.85;;;2.13;;
65189;SDS011;51777;53.570;9.984;2023-11-22T14:28:16;2.47;;;1.75;;
65189;SDS011;51777;53.570;9.984;2023-11-22T14:30:41;2.80;;;1.73;;
65189;SDS011;51777;53.570;9.984;2023-11-22T14:33:07;3.03;;;1.60;;
65189;SDS011;51777;53.570;9.984;2023-11-22T14:35:34;1.50;;;1.40;;
65189;SDS011;51777;53.570;9.984;2023-11-22T14:38:03;2.00;;;1.80;;
65189;SDS011;51777;53.570;9.984;2023-11-22T14:40:30;3.28;;;1.80;;
65189;SDS011;51777;53.570;9.984;2023-11-22T14:43:07;1.98;;;1.40;;
65189;SDS011;51777;53.570;9.984;2023-11-22T14:45:33;1.92;;;1.73;;
65189;SDS011;51777;53.570;9.984;2023-11-22T14:47:58;2.30;;;1.70;;
65189;SDS011;51777;53.570;9.984;2023-11-22T14:50:26;2.17;;;1.67;;
65189;SDS011;51777;53.570;9.984;2023-11-22T14:52:53;3.17;;;1.50;;